Terminal Aerodrome Forecast
Issued by NWS

Home | Current Version | Previous Version | Text Only | Print | Product List | Glossary On
Versions: 1 2 3 4 5 6 7 8 9 10 11 12 13
329
FTUS45 KABQ 212331
TAFFMN
TAF
KFMN 212331Z 2200/2224 25007KT P6SM SCT150 BKN200
     FM220200 08006KT P6SM BKN150
     FM221600 12006KT P6SM BKN150
     FM222000 26015G22KT P6SM SCT150 SCT250=

USA.gov is the U.S. government's official web portal to all federal, state and local government web resources and services.